sensor_id;sensor_type;location;lat;lon;timestamp;pressure;altitude;pressure_sealevel;temperature;humidity
37892;BME280;45797;47.466;9.486;2023-09-30T00:03:53;96706.75;;;20.48;65.43
37892;BME280;45797;47.466;9.486;2023-09-30T00:08:53;96697.09;;;20.47;65.33
37892;BME280;45797;47.466;9.486;2023-09-30T00:13:54;96696.38;;;20.45;65.58
37892;BME280;45797;47.466;9.486;2023-09-30T00:18:55;96694.97;;;20.41;65.52
37892;BME280;45797;47.466;9.486;2023-09-30T00:24:06;96705.09;;;20.38;65.55
37892;BME280;45797;47.466;9.486;2023-09-30T00:29:08;96706.94;;;20.37;65.87
37892;BME280;45797;47.466;9.486;2023-09-30T00:34:10;96708.03;;;20.35;65.40
37892;BME280;45797;47.466;9.486;2023-09-30T00:39:26;96708.50;;;20.30;65.90
37892;BME280;45797;47.466;9.486;2023-09-30T00:44:29;96708.66;;;20.29;66.14
37892;BME280;45797;47.466;9.486;2023-09-30T00:49:33;96707.94;;;20.26;65.86
37892;BME280;45797;47.466;9.486;2023-09-30T00:54:36;96707.25;;;20.24;65.94
37892;BME280;45797;47.466;9.486;2023-09-30T00:59:40;96695.41;;;20.19;66.17
37892;BME280;45797;47.466;9.486;2023-09-30T01:04:42;96697.34;;;20.17;65.92
37892;BME280;45797;47.466;9.486;2023-09-30T01:09:44;96688.00;;;20.13;66.24
37892;BME280;45797;47.466;9.486;2023-09-30T01:14:57;96685.06;;;20.06;66.25
37892;BME280;45797;47.466;9.486;2023-09-30T01:19:58;96679.75;;;20.06;66.39
37892;BME280;45797;47.466;9.486;2023-09-30T01:25:01;96690.84;;;20.02;66.12
37892;BME280;45797;47.466;9.486;2023-09-30T01:30:04;96685.69;;;20.00;66.54
37892;BME280;45797;47.466;9.486;2023-09-30T01:35:21;96678.28;;;19.94;66.33
37892;BME280;45797;47.466;9.486;2023-09-30T01:40:27;96664.97;;;19.94;66.42
37892;BME280;45797;47.466;9.486;2023-09-30T01:45:30;96668.78;;;19.91;66.69
37892;BME280;45797;47.466;9.486;2023-09-30T01:50:30;96660.22;;;19.88;66.55
37892;BME280;45797;47.466;9.486;2023-09-30T01:55:43;96659.69;;;19.84;66.60
37892;BME280;45797;47.466;9.486;2023-09-30T02:00:49;96663.50;;;19.82;67.01
37892;BME280;45797;47.466;9.486;2023-09-30T02:05:49;96656.94;;;19.76;66.81
37892;BME280;45797;47.466;9.486;2023-09-30T02:10:52;96672.88;;;19.76;67.04
37892;BME280;45797;47.466;9.486;2023-09-30T02:15:53;96667.88;;;19.73;67.33
37892;BME280;45797;47.466;9.486;2023-09-30T02:20:55;96668.13;;;19.70;67.56
37892;BME280;45797;47.466;9.486;2023-09-30T02:25:56;96666.47;;;19.69;66.84
37892;BME280;45797;47.466;9.486;2023-09-30T02:31:02;96672.06;;;19.66;67.14
37892;BME280;45797;47.466;9.486;2023-09-30T02:36:03;96649.97;;;19.65;67.32
37892;BME280;45797;47.466;9.486;2023-09-30T02:41:17;96650.53;;;19.59;66.91
37892;BME280;45797;47.466;9.486;2023-09-30T02:46:24;96651.53;;;19.58;67.32
37892;BME280;45797;47.466;9.486;2023-09-30T02:51:42;96655.31;;;19.56;67.62
37892;BME280;45797;47.466;9.486;2023-09-30T02:57:35;96665.09;;;19.46;67.93
37892;BME280;45797;47.466;9.486;2023-09-30T03:02:39;96658.97;;;19.45;67.46
37892;BME280;45797;47.466;9.486;2023-09-30T03:07:50;96658.53;;;19.40;67.85
37892;BME280;45797;47.466;9.486;2023-09-30T03:12:56;96664.00;;;19.38;67.93
37892;BME280;45797;47.466;9.486;2023-09-30T03:18:08;96665.28;;;19.34;68.02
37892;BME280;45797;47.466;9.486;2023-09-30T03:23:15;96664.56;;;19.32;67.73
37892;BME280;45797;47.466;9.486;2023-09-30T03:28:45;96667.50;;;19.29;68.06
37892;BME280;45797;47.466;9.486;2023-09-30T03:33:46;96666.81;;;19.27;68.39
37892;BME280;45797;47.466;9.486;2023-09-30T03:38:50;96668.66;;;19.27;68.22
37892;BME280;45797;47.466;9.486;2023-09-30T03:43:57;96675.47;;;19.29;68.46
37892;BME280;45797;47.466;9.486;2023-09-30T03:48:57;96679.97;;;19.29;68.49
37892;BME280;45797;47.466;9.486;2023-09-30T03:53:59;96666.53;;;19.30;68.54
37892;BME280;45797;47.466;9.486;2023-09-30T03:59:04;96669.34;;;19.29;68.70
37892;BME280;45797;47.466;9.486;2023-09-30T04:04:06;96670.84;;;19.31;68.28
37892;BME280;45797;47.466;9.486;2023-09-30T04:09:07;96673.38;;;19.33;68.67
37892;BME280;45797;47.466;9.486;2023-09-30T04:14:18;96673.81;;;19.28;68.61
37892;BME280;45797;47.466;9.486;2023-09-30T04:19:20;96673.81;;;19.28;69.18
37892;BME280;45797;47.466;9.486;2023-09-30T04:24:37;96677.44;;;19.27;68.86
37892;BME280;45797;47.466;9.486;2023-09-30T04:30:05;96668.78;;;19.25;68.99
37892;BME280;45797;47.466;9.486;2023-09-30T04:35:18;96667.97;;;19.25;68.73
37892;BME280;45797;47.466;9.486;2023-09-30T04:40:27;96655.78;;;19.22;68.88
37892;BME280;45797;47.466;9.486;2023-09-30T04:45:37;96670.19;;;19.20;69.36
37892;BME280;45797;47.466;9.486;2023-09-30T04:50:39;96657.75;;;19.20;69.18
37892;BME280;45797;47.466;9.486;2023-09-30T04:55:55;96652.03;;;19.15;69.22
37892;BME280;45797;47.466;9.486;2023-09-30T05:01:12;96660.13;;;19.13;69.13
37892;BME280;45797;47.466;9.486;2023-09-30T05:06:14;96667.00;;;19.16;69.34
37892;BME280;45797;47.466;9.486;2023-09-30T05:11:15;96696.63;;;19.11;69.53
37892;BME280;45797;47.466;9.486;2023-09-30T05:16:17;96680.81;;;19.10;69.82
37892;BME280;45797;47.466;9.486;2023-09-30T05:21:28;96684.75;;;19.06;69.60
37892;BME280;45797;47.466;9.486;2023-09-30T05:26:31;96685.44;;;19.08;69.37
37892;BME280;45797;47.466;9.486;2023-09-30T05:31:33;96695.38;;;19.06;69.49
37892;BME280;45797;47.466;9.486;2023-09-30T05:36:53;96697.06;;;19.07;69.57
37892;BME280;45797;47.466;9.486;2023-09-30T05:41:55;96701.22;;;19.09;69.70
37892;BME280;45797;47.466;9.486;2023-09-30T05:47:14;96696.91;;;19.08;69.86
37892;BME280;45797;47.466;9.486;2023-09-30T05:52:28;96702.75;;;19.12;69.47
37892;BME280;45797;47.466;9.486;2023-09-30T05:57:35;96712.41;;;19.13;69.31
37892;BME280;45797;47.466;9.486;2023-09-30T06:02:57;96714.81;;;19.16;69.56
37892;BME280;45797;47.466;9.486;2023-09-30T06:08:25;96725.00;;;19.21;69.49
37892;BME280;45797;47.466;9.486;2023-09-30T06:13:33;96728.78;;;19.28;69.27
37892;BME280;45797;47.466;9.486;2023-09-30T06:18:52;96744.56;;;19.29;69.26
37892;BME280;45797;47.466;9.486;2023-09-30T06:23:55;96730.88;;;19.34;69.30
37892;BME280;45797;47.466;9.486;2023-09-30T06:28:56;96739.94;;;19.41;69.23
37892;BME280;45797;47.466;9.486;2023-09-30T06:34:05;96746.38;;;19.48;68.96
37892;BME280;45797;47.466;9.486;2023-09-30T06:39:16;96760.19;;;19.52;68.87
37892;BME280;45797;47.466;9.486;2023-09-30T06:44:18;96751.00;;;19.56;68.66
37892;BME280;45797;47.466;9.486;2023-09-30T06:49:18;96750.72;;;19.59;68.58
37892;BME280;45797;47.466;9.486;2023-09-30T06:54:26;96743.41;;;19.71;68.52
37892;BME280;45797;47.466;9.486;2023-09-30T06:59:27;96750.81;;;19.86;67.88
37892;BME280;45797;47.466;9.486;2023-09-30T07:04:32;96758.19;;;20.02;67.98
37892;BME280;45797;47.466;9.486;2023-09-30T07:09:34;96753.81;;;20.11;67.77
37892;BME280;45797;47.466;9.486;2023-09-30T07:14:53;96777.63;;;20.12;67.52
37892;BME280;45797;47.466;9.486;2023-09-30T07:20:05;96779.72;;;20.09;67.55
37892;BME280;45797;47.466;9.486;2023-09-30T07:25:07;96771.47;;;20.12;67.24
37892;BME280;45797;47.466;9.486;2023-09-30T07:30:12;96754.47;;;20.22;67.20
37892;BME280;45797;47.466;9.486;2023-09-30T07:35:15;96761.00;;;20.38;66.67
37892;BME280;45797;47.466;9.486;2023-09-30T07:40:20;96776.25;;;20.45;66.48
37892;BME280;45797;47.466;9.486;2023-09-30T07:45:28;96786.88;;;20.45;66.22
37892;BME280;45797;47.466;9.486;2023-09-30T07:50:32;96799.63;;;20.51;66.09
37892;BME280;45797;47.466;9.486;2023-09-30T07:55:33;96806.94;;;20.77;65.41
37892;BME280;45797;47.466;9.486;2023-09-30T08:00:36;96815.34;;;20.72;64.97
37892;BME280;45797;47.466;9.486;2023-09-30T08:05:52;96821.31;;;20.84;65.55
37892;BME280;45797;47.466;9.486;2023-09-30T08:10:56;96812.38;;;21.03;64.81
37892;BME280;45797;47.466;9.486;2023-09-30T08:15:59;96806.75;;;21.06;64.68
37892;BME280;45797;47.466;9.486;2023-09-30T08:21:02;96801.66;;;21.13;64.45
37892;BME280;45797;47.466;9.486;2023-09-30T08:26:05;96797.66;;;21.26;64.04
37892;BME280;45797;47.466;9.486;2023-09-30T08:31:08;96797.41;;;21.20;64.09
37892;BME280;45797;47.466;9.486;2023-09-30T08:36:10;96803.03;;;21.17;64.23
37892;BME280;45797;47.466;9.486;2023-09-30T08:41:24;96808.38;;;21.17;64.12
37892;BME280;45797;47.466;9.486;2023-09-30T08:46:30;96803.53;;;21.30;63.63
37892;BME280;45797;47.466;9.486;2023-09-30T08:51:40;96808.09;;;21.55;62.93
37892;BME280;45797;47.466;9.486;2023-09-30T08:56:47;96806.50;;;21.62;63.18
37892;BME280;45797;47.466;9.486;2023-09-30T09:01:49;96803.53;;;21.48;63.24
37892;BME280;45797;47.466;9.486;2023-09-30T09:06:53;96788.00;;;21.43;63.44
37892;BME280;45797;47.466;9.486;2023-09-30T09:11:58;96777.34;;;21.43;63.72
37892;BME280;45797;47.466;9.486;2023-09-30T09:17:11;96773.13;;;21.41;63.88
37892;BME280;45797;47.466;9.486;2023-09-30T09:22:24;96757.38;;;21.29;63.76
37892;BME280;45797;47.466;9.486;2023-09-30T09:27:26;96763.03;;;21.26;64.27
37892;BME280;45797;47.466;9.486;2023-09-30T09:32:36;96761.75;;;21.21;64.25
37892;BME280;45797;47.466;9.486;2023-09-30T09:37:42;96762.06;;;21.18;64.17
37892;BME280;45797;47.466;9.486;2023-09-30T09:42:45;96776.59;;;21.33;64.39
37892;BME280;45797;47.466;9.486;2023-09-30T09:47:46;96777.16;;;21.62;62.91
37892;BME280;45797;47.466;9.486;2023-09-30T09:52:50;96768.16;;;22.07;62.10
37892;BME280;45797;47.466;9.486;2023-09-30T09:57:53;96774.34;;;22.42;61.73
37892;BME280;45797;47.466;9.486;2023-09-30T10:02:58;96767.97;;;22.69;60.87
37892;BME280;45797;47.466;9.486;2023-09-30T10:08:04;96777.19;;;22.83;60.67
37892;BME280;45797;47.466;9.486;2023-09-30T10:13:09;96769.75;;;22.94;60.22
37892;BME280;45797;47.466;9.486;2023-09-30T10:18:10;96761.88;;;22.85;60.58
37892;BME280;45797;47.466;9.486;2023-09-30T10:23:20;96773.91;;;22.55;61.31
37892;BME280;45797;47.466;9.486;2023-09-30T10:28:43;96772.47;;;22.34;61.19
37892;BME280;45797;47.466;9.486;2023-09-30T10:39:14;96742.88;;;22.19;62.01
37892;BME280;45797;47.466;9.486;2023-09-30T10:44:33;96747.00;;;22.14;61.99
37892;BME280;45797;47.466;9.486;2023-09-30T10:49:35;96745.41;;;22.21;61.68
37892;BME280;45797;47.466;9.486;2023-09-30T10:54:40;96737.22;;;22.22;61.73
37892;BME280;45797;47.466;9.486;2023-09-30T10:59:48;96746.56;;;22.18;61.59
37892;BME280;45797;47.466;9.486;2023-09-30T11:04:52;96729.88;;;22.24;61.33
37892;BME280;45797;47.466;9.486;2023-09-30T11:09:57;96735.25;;;22.33;61.21
37892;BME280;45797;47.466;9.486;2023-09-30T11:15:05;96734.47;;;22.40;61.01
37892;BME280;45797;47.466;9.486;2023-09-30T11:20:27;96723.81;;;22.48;60.70
37892;BME280;45797;47.466;9.486;2023-09-30T11:25:35;96707.50;;;22.60;60.31
37892;BME280;45797;47.466;9.486;2023-09-30T11:30:53;96703.88;;;22.77;59.85
37892;BME280;45797;47.466;9.486;2023-09-30T11:36:06;96689.72;;;22.85;59.61
37892;BME280;45797;47.466;9.486;2023-09-30T11:41:35;96702.78;;;22.96;59.45
37892;BME280;45797;47.466;9.486;2023-09-30T11:47:00;96703.78;;;23.03;59.31
37892;BME280;45797;47.466;9.486;2023-09-30T11:52:11;96703.13;;;23.17;59.07
37892;BME280;45797;47.466;9.486;2023-09-30T11:57:17;96699.44;;;23.26;58.57
37892;BME280;45797;47.466;9.486;2023-09-30T12:02:22;96689.28;;;23.22;58.59
37892;BME280;45797;47.466;9.486;2023-09-30T12:07:29;96698.44;;;23.27;58.58
37892;BME280;45797;47.466;9.486;2023-09-30T12:12:29;96688.09;;;23.41;58.32
37892;BME280;45797;47.466;9.486;2023-09-30T12:17:30;96686.72;;;23.77;57.21
37892;BME280;45797;47.466;9.486;2023-09-30T12:22:31;96672.91;;;24.13;56.77
37892;BME280;45797;47.466;9.486;2023-09-30T12:27:33;96670.38;;;24.19;56.56
37892;BME280;45797;47.466;9.486;2023-09-30T12:32:33;96664.22;;;24.11;56.63
37892;BME280;45797;47.466;9.486;2023-09-30T12:37:36;96664.50;;;24.16;55.95
37892;BME280;45797;47.466;9.486;2023-09-30T12:42:42;96666.03;;;24.18;55.70
37892;BME280;45797;47.466;9.486;2023-09-30T12:47:44;96660.88;;;24.09;56.39
37892;BME280;45797;47.466;9.486;2023-09-30T12:52:52;96665.38;;;24.16;55.67
37892;BME280;45797;47.466;9.486;2023-09-30T12:57:54;96657.50;;;24.15;55.52
37892;BME280;45797;47.466;9.486;2023-09-30T13:03:03;96653.13;;;24.22;55.64
37892;BME280;45797;47.466;9.486;2023-09-30T13:08:05;96644.56;;;24.27;55.48
37892;BME280;45797;47.466;9.486;2023-09-30T13:13:05;96629.81;;;24.31;55.47
37892;BME280;45797;47.466;9.486;2023-09-30T13:18:22;96638.25;;;24.19;55.85
37892;BME280;45797;47.466;9.486;2023-09-30T13:23:25;96640.47;;;24.47;54.54
37892;BME280;45797;47.466;9.486;2023-09-30T13:28:29;96648.63;;;25.08;53.35
37892;BME280;45797;47.466;9.486;2023-09-30T13:33:31;96657.91;;;25.57;52.09
37892;BME280;45797;47.466;9.486;2023-09-30T13:38:32;96657.19;;;25.63;52.04
37892;BME280;45797;47.466;9.486;2023-09-30T13:43:36;96661.75;;;25.63;52.22
37892;BME280;45797;47.466;9.486;2023-09-30T13:48:38;96668.38;;;25.52;52.46
37892;BME280;45797;47.466;9.486;2023-09-30T13:53:38;96660.41;;;25.44;52.76
37892;BME280;45797;47.466;9.486;2023-09-30T13:58:41;96666.41;;;25.46;52.11
37892;BME280;45797;47.466;9.486;2023-09-30T14:03:51;96664.81;;;25.37;52.99
37892;BME280;45797;47.466;9.486;2023-09-30T14:08:56;96669.16;;;25.38;52.79
37892;BME280;45797;47.466;9.486;2023-09-30T14:14:12;96666.59;;;25.45;52.60
37892;BME280;45797;47.466;9.486;2023-09-30T14:19:16;96661.13;;;25.38;52.47
37892;BME280;45797;47.466;9.486;2023-09-30T14:24:17;96663.22;;;25.28;52.74
37892;BME280;45797;47.466;9.486;2023-09-30T14:29:20;96662.19;;;25.14;52.74
37892;BME280;45797;47.466;9.486;2023-09-30T14:34:22;96659.31;;;25.16;52.75
37892;BME280;45797;47.466;9.486;2023-09-30T14:39:24;96656.75;;;25.22;52.83
37892;BME280;45797;47.466;9.486;2023-09-30T14:44:25;96638.81;;;25.38;52.45
37892;BME280;45797;47.466;9.486;2023-09-30T14:49:27;96645.81;;;25.61;52.28
37892;BME280;45797;47.466;9.486;2023-09-30T14:54:29;96648.31;;;25.63;51.96
37892;BME280;45797;47.466;9.486;2023-09-30T14:59:33;96648.97;;;25.50;52.38
37892;BME280;45797;47.466;9.486;2023-09-30T15:04:35;96660.53;;;25.28;52.79
37892;BME280;45797;47.466;9.486;2023-09-30T15:09:36;96661.78;;;25.02;52.90
37892;BME280;45797;47.466;9.486;2023-09-30T15:14:37;96656.75;;;24.91;53.41
37892;BME280;45797;47.466;9.486;2023-09-30T15:19:41;96656.53;;;25.01;52.94
37892;BME280;45797;47.466;9.486;2023-09-30T15:24:41;96653.38;;;25.20;53.09
37892;BME280;45797;47.466;9.486;2023-09-30T15:29:43;96650.75;;;25.35;52.60
37892;BME280;45797;47.466;9.486;2023-09-30T15:34:48;96655.03;;;25.44;52.24
37892;BME280;45797;47.466;9.486;2023-09-30T15:39:58;96650.81;;;25.50;52.25
37892;BME280;45797;47.466;9.486;2023-09-30T15:44:59;96649.03;;;25.57;52.23
37892;BME280;45797;47.466;9.486;2023-09-30T15:50:11;96640.34;;;25.55;52.35
37892;BME280;45797;47.466;9.486;2023-09-30T15:55:12;96648.28;;;25.48;52.25
37892;BME280;45797;47.466;9.486;2023-09-30T16:00:13;96649.47;;;25.31;52.45
37892;BME280;45797;47.466;9.486;2023-09-30T16:05:14;96655.97;;;25.14;52.82
37892;BME280;45797;47.466;9.486;2023-09-30T16:10:16;96661.16;;;24.92;53.08
37892;BME280;45797;47.466;9.486;2023-09-30T16:15:16;96656.94;;;24.67;53.74
37892;BME280;45797;47.466;9.486;2023-09-30T16:20:17;96672.13;;;24.43;53.76
37892;BME280;45797;47.466;9.486;2023-09-30T16:25:23;96673.72;;;24.13;54.56
37892;BME280;45797;47.466;9.486;2023-09-30T16:30:24;96675.00;;;23.86;54.89
37892;BME280;45797;47.466;9.486;2023-09-30T16:35:25;96676.06;;;23.61;55.32
37892;BME280;45797;47.466;9.486;2023-09-30T16:40:28;96678.72;;;23.36;56.05
37892;BME280;45797;47.466;9.486;2023-09-30T16:45:35;96675.53;;;23.08;56.75
37892;BME280;45797;47.466;9.486;2023-09-30T16:50:42;96673.69;;;22.85;56.91
37892;BME280;45797;47.466;9.486;2023-09-30T16:55:44;96667.25;;;22.61;57.46
37892;BME280;45797;47.466;9.486;2023-09-30T17:00:57;96676.06;;;22.37;57.80
37892;BME280;45797;47.466;9.486;2023-09-30T17:06:00;96678.78;;;22.11;58.47
37892;BME280;45797;47.466;9.486;2023-09-30T17:11:01;96681.28;;;21.87;58.68
37892;BME280;45797;47.466;9.486;2023-09-30T17:16:04;96681.81;;;21.64;58.98
37892;BME280;45797;47.466;9.486;2023-09-30T17:21:06;96686.69;;;21.43;59.04
37892;BME280;45797;47.466;9.486;2023-09-30T17:26:15;96686.97;;;21.22;59.45
37892;BME280;45797;47.466;9.486;2023-09-30T17:31:20;96695.00;;;21.04;59.77
37892;BME280;45797;47.466;9.486;2023-09-30T17:36:20;96694.00;;;20.88;60.02
37892;BME280;45797;47.466;9.486;2023-09-30T17:41:23;96696.19;;;20.74;60.04
37892;BME280;45797;47.466;9.486;2023-09-30T17:46:24;96699.91;;;20.64;59.95
37892;BME280;45797;47.466;9.486;2023-09-30T17:51:25;96700.53;;;20.58;59.74
37892;BME280;45797;47.466;9.486;2023-09-30T17:56:25;96695.78;;;20.51;60.34
37892;BME280;45797;47.466;9.486;2023-09-30T18:01:26;96690.50;;;20.42;60.73
37892;BME280;45797;47.466;9.486;2023-09-30T18:06:27;96692.22;;;20.33;60.58
37892;BME280;45797;47.466;9.486;2023-09-30T18:11:35;96697.16;;;20.28;60.75
37892;BME280;45797;47.466;9.486;2023-09-30T18:16:36;96703.75;;;20.24;60.56
37892;BME280;45797;47.466;9.486;2023-09-30T18:21:37;96692.16;;;20.15;61.16
37892;BME280;45797;47.466;9.486;2023-09-30T18:26:39;96691.78;;;20.10;61.31
37892;BME280;45797;47.466;9.486;2023-09-30T18:31:42;96689.88;;;20.03;61.24
37892;BME280;45797;47.466;9.486;2023-09-30T18:36:50;96699.41;;;19.95;61.21
37892;BME280;45797;47.466;9.486;2023-09-30T18:41:51;96705.28;;;19.89;61.61
37892;BME280;45797;47.466;9.486;2023-09-30T18:47:03;96697.91;;;19.83;61.34
37892;BME280;45797;47.466;9.486;2023-09-30T18:52:06;96703.66;;;19.79;61.77
37892;BME280;45797;47.466;9.486;2023-09-30T18:57:08;96693.47;;;19.74;62.24
37892;BME280;45797;47.466;9.486;2023-09-30T19:02:09;96702.00;;;19.68;61.95
37892;BME280;45797;47.466;9.486;2023-09-30T19:07:10;96705.66;;;19.67;61.75
37892;BME280;45797;47.466;9.486;2023-09-30T19:12:15;96702.59;;;19.62;61.95
37892;BME280;45797;47.466;9.486;2023-09-30T19:17:23;96699.53;;;19.57;62.39
37892;BME280;45797;47.466;9.486;2023-09-30T19:22:24;96706.78;;;19.55;62.11
37892;BME280;45797;47.466;9.486;2023-09-30T19:27:25;96705.66;;;19.48;62.72
37892;BME280;45797;47.466;9.486;2023-09-30T19:32:28;96707.94;;;19.43;62.63
37892;BME280;45797;47.466;9.486;2023-09-30T19:37:45;96714.09;;;19.33;62.35
37892;BME280;45797;47.466;9.486;2023-09-30T19:42:45;96710.03;;;19.29;62.80
37892;BME280;45797;47.466;9.486;2023-09-30T19:47:46;96706.81;;;19.26;62.94
37892;BME280;45797;47.466;9.486;2023-09-30T19:52:46;96706.53;;;19.19;62.84
37892;BME280;45797;47.466;9.486;2023-09-30T19:57:54;96703.50;;;19.14;63.16
37892;BME280;45797;47.466;9.486;2023-09-30T20:02:55;96703.88;;;19.09;63.33
37892;BME280;45797;47.466;9.486;2023-09-30T20:07:58;96706.97;;;19.05;62.93
37892;BME280;45797;47.466;9.486;2023-09-30T20:13:12;96695.09;;;18.99;63.21
37892;BME280;45797;47.466;9.486;2023-09-30T20:18:29;96707.38;;;18.91;63.85
37892;BME280;45797;47.466;9.486;2023-09-30T20:23:34;96709.50;;;18.87;63.52
37892;BME280;45797;47.466;9.486;2023-09-30T20:28:35;96709.06;;;18.82;63.85
37892;BME280;45797;47.466;9.486;2023-09-30T20:33:37;96712.84;;;18.79;63.37
37892;BME280;45797;47.466;9.486;2023-09-30T20:38:38;96709.75;;;18.74;63.86
37892;BME280;45797;47.466;9.486;2023-09-30T20:43:46;96712.00;;;18.69;63.91
37892;BME280;45797;47.466;9.486;2023-09-30T20:48:48;96712.97;;;18.68;64.08
37892;BME280;45797;47.466;9.486;2023-09-30T20:53:54;96718.78;;;18.62;63.71
37892;BME280;45797;47.466;9.486;2023-09-30T20:58:56;96726.31;;;18.57;63.87
37892;BME280;45797;47.466;9.486;2023-09-30T21:03:57;96727.56;;;18.53;64.26
37892;BME280;45797;47.466;9.486;2023-09-30T21:09:04;96717.38;;;18.48;64.15
37892;BME280;45797;47.466;9.486;2023-09-30T21:14:08;96727.16;;;18.48;64.23
37892;BME280;45797;47.466;9.486;2023-09-30T21:19:09;96733.16;;;18.50;64.61
37892;BME280;45797;47.466;9.486;2023-09-30T21:24:10;96728.81;;;18.49;64.63
37892;BME280;45797;47.466;9.486;2023-09-30T21:29:10;96728.81;;;18.49;64.69
37892;BME280;45797;47.466;9.486;2023-09-30T21:34:12;96734.13;;;18.49;64.87
37892;BME280;45797;47.466;9.486;2023-09-30T21:39:16;96741.38;;;18.47;64.42
37892;BME280;45797;47.466;9.486;2023-09-30T21:44:18;96748.75;;;18.43;64.78
37892;BME280;45797;47.466;9.486;2023-09-30T21:49:23;96754.22;;;18.42;65.10
37892;BME280;45797;47.466;9.486;2023-09-30T21:54:29;96761.63;;;18.38;65.24
37892;BME280;45797;47.466;9.486;2023-09-30T21:59:30;96758.38;;;18.35;65.22
37892;BME280;45797;47.466;9.486;2023-09-30T22:04:31;96753.59;;;18.28;65.36
37892;BME280;45797;47.466;9.486;2023-09-30T22:09:39;96763.63;;;18.25;65.17
37892;BME280;45797;47.466;9.486;2023-09-30T22:14:46;96769.22;;;18.22;65.58
37892;BME280;45797;47.466;9.486;2023-09-30T22:19:59;96766.94;;;18.17;65.65
37892;BME280;45797;47.466;9.486;2023-09-30T22:25:01;96769.75;;;18.16;65.34
37892;BME280;45797;47.466;9.486;2023-09-30T22:30:33;96769.31;;;18.11;65.45
37892;BME280;45797;47.466;9.486;2023-09-30T22:35:34;96761.38;;;18.11;65.79
37892;BME280;45797;47.466;9.486;2023-09-30T22:40:35;96765.22;;;18.07;65.69
37892;BME280;45797;47.466;9.486;2023-09-30T22:45:50;96764.81;;;18.02;65.75
37892;BME280;45797;47.466;9.486;2023-09-30T22:50:52;96766.88;;;17.98;66.20
37892;BME280;45797;47.466;9.486;2023-09-30T22:55:53;96772.72;;;17.92;66.56
37892;BME280;45797;47.466;9.486;2023-09-30T23:00:56;96776.59;;;17.88;66.47
37892;BME280;45797;47.466;9.486;2023-09-30T23:05:58;96770.72;;;17.84;66.47
37892;BME280;45797;47.466;9.486;2023-09-30T23:10:58;96779.03;;;17.80;66.60
37892;BME280;45797;47.466;9.486;2023-09-30T23:16:00;96780.00;;;17.79;66.48
37892;BME280;45797;47.466;9.486;2023-09-30T23:21:01;96780.00;;;17.79;66.60
37892;BME280;45797;47.466;9.486;2023-09-30T23:26:01;96789.63;;;17.80;66.81
37892;BME280;45797;47.466;9.486;2023-09-30T23:31:06;96794.56;;;17.84;66.35
37892;BME280;45797;47.466;9.486;2023-09-30T23:36:12;96796.94;;;17.87;66.48
37892;BME280;45797;47.466;9.486;2023-09-30T23:41:13;96784.28;;;17.91;66.14
37892;BME280;45797;47.466;9.486;2023-09-30T23:46:13;96781.50;;;17.92;66.20
37892;BME280;45797;47.466;9.486;2023-09-30T23:51:15;96770.63;;;17.95;66.77
37892;BME280;45797;47.466;9.486;2023-09-30T23:56:22;96783.31;;;17.92;66.56
